Aeroporto :
LOGIN :

Iscrizione | Disclaimer

   EN    FR    IT 

 










Sommario :    VFR   VFR Marginale   IFR   IFR Intensivo   IFR Molto Intensivo
Visibilità : 
Base nubi : 
>= 8 km
>= 3000ft
5 / 8 km
1000 / 3000 ft
1500m / 5 km
500 / 1000 ft
800 / 1500m
200 / 500 ft
< 800m
< 200 ft
Simboli :   Temporali  Nebbia  Neve Forte  Precipitazioni Forti  Vento > 20 kt
SIGMETs :   Varie  Temporali  Ghiacco  Turbolenza  Onda orograficha  Ceneri Vulcaniche






- Altitudine del aeroporto : 359 ft
- Codice IATA : BVA


LFOB - Beauvais

ULTIMO METAR :
  • 141830Z AUTO 06005KT 9999 OVC029 05/03 Q1000 NOSIG

METARs OBSOLETI :
  • 141800Z AUTO 09004KT 9999 OVC026 05/02 Q1000 NOSIG
  • 141730Z AUTO 11005KT 9999 OVC025 06/03 Q1000 TEMPO 3000 BR
  • 141700Z AUTO 13003KT 9999 OVC025 05/03 Q0999 TEMPO 3000 BR
  • 141630Z AUTO 13005KT 9999 BKN024 05/02 Q0999 TEMPO 3000 BR
  • 141600Z AUTO 14004KT 9999 BKN023 06/03 Q0999 TEMPO 3000 BR

TAF TAF LFOB
Valido dal 14 a 18 ore il 15 a 18 ore UTC


141700Z 1418/1518 VRB02KT 9999 OVC025
BECMG 1423/1501 36010KT OVC008
TEMPO 1503/1518 2000 RADZ OVC004
BECMG 1513/1515 VRB02KT
ATIS : +33 3 44 11 49 28



MetMap, La meteo Aeronautica in un colpo d'occhio ! - Copyright ORBIFLY Dicembre 2007 - Disclaimer

ORBIFLY MET'MAP TEAM :

Programmazione e sviluppo : Alexandra Zaïnal
Concezione e sviluppo : Baudouin d'Aumeries
Co-Programmazione e sviluppo : Marc-Olivier Méhu
Supporto tecnico e logistico : Manuel Goepfert
Aiuto per la traduzione : Arnaldo La Scala

Contatto : metmap@orbifly.com




FONTI E CREDITI :

   NOAA